Time;durP1;ratioP1;P1;durP2;ratioP2;P2;SDS_P1;SDS_P2;PMS_P1;PMS_P2;Temp;Humidity;BMP_temperature;BMP_pressure;BME280_temperature;BME280_humidity;BME280_pressure;Samples;Min_cycle;Max_cycle;Signal;HPM_P1;HPM_P2
2023/09/04 00:00:55;;;;;;;7.55;4.97;;;;;;;14.25;100.00;102636.41;5069415;28;20107;-64
2023/09/04 00:03:26;;;;;;;7.38;4.68;;;;;;;14.32;100.00;102637.78;5068808;28;20072;-64
2023/09/04 00:05:55;;;;;;;7.57;5.00;;;;;;;14.23;100.00;102635.63;5068808;28;20131;-66
2023/09/04 00:08:23;;;;;;;6.65;4.20;;;;;;;14.20;100.00;102639.28;5066431;28;20041;-64
2023/09/04 00:10:53;;;;;;;6.95;4.60;;;;;;;14.25;100.00;102644.34;5070665;28;20045;-63
2023/09/04 00:13:21;;;;;;;9.45;4.75;;;;;;;14.16;100.00;102639.53;5068645;28;20056;-64
2023/09/04 00:15:55;;;;;;;7.13;4.70;;;;;;;14.13;100.00;102637.06;5069130;28;20128;-63
2023/09/04 00:18:24;;;;;;;6.82;4.80;;;;;;;14.11;100.00;102633.63;5068231;28;20040;-63
2023/09/04 00:20:54;;;;;;;8.15;4.55;;;;;;;14.07;100.00;102625.00;5069174;28;20048;-63
2023/09/04 00:23:22;;;;;;;7.40;4.85;;;;;;;14.07;100.00;102635.59;5069008;28;20485;-63
2023/09/04 00:25:50;;;;;;;7.57;4.60;;;;;;;14.06;100.00;102635.66;5068217;28;20137;-63
2023/09/04 00:28:20;;;;;;;7.07;4.20;;;;;;;14.03;100.00;102632.25;5068826;28;20479;-63
2023/09/04 00:30:49;;;;;;;7.50;4.57;;;;;;;13.96;100.00;102632.63;5067268;28;20044;-63
2023/09/04 00:33:19;;;;;;;8.13;4.95;;;;;;;14.01;100.00;102639.38;5071423;28;20048;-63
2023/09/04 00:35:48;;;;;;;9.20;5.18;;;;;;;13.89;100.00;102629.44;5068582;28;20541;-63
2023/09/04 00:38:16;;;;;;;8.35;5.43;;;;;;;13.89;100.00;102629.44;5066830;28;20068;-63
2023/09/04 00:40:45;;;;;;;8.32;5.05;;;;;;;13.86;100.00;102629.59;5068381;28;20052;-63
2023/09/04 00:43:13;;;;;;;10.50;5.68;;;;;;;13.79;100.00;102622.91;5068593;28;20129;-63
2023/09/04 00:45:44;;;;;;;8.63;5.25;;;;;;;13.84;100.00;102624.38;5071786;28;20530;-63
2023/09/04 00:48:13;;;;;;;8.77;5.20;;;;;;;13.81;100.00;102621.03;5070353;28;20079;-63
2023/09/04 00:50:44;;;;;;;8.52;5.82;;;;;;;13.79;100.00;102617.63;5069221;28;20053;-63
2023/09/04 00:53:13;;;;;;;8.32;6.35;;;;;;;13.75;100.00;102621.34;5064764;28;20129;-63
2023/09/04 00:55:42;;;;;;;8.30;5.93;;;;;;;13.77;100.00;102611.53;5071136;28;20552;-63
2023/09/04 00:58:11;;;;;;;9.45;6.05;;;;;;;13.65;100.00;102611.25;5070854;28;20036;-63
2023/09/04 01:00:39;;;;;;;9.27;5.88;;;;;;;13.66;100.00;102609.44;5071422;28;20048;-63
2023/09/04 01:03:11;;;;;;;8.98;5.80;;;;;;;13.64;100.00;102612.16;5071460;28;20132;-63
2023/09/04 01:05:39;;;;;;;8.02;5.72;;;;;;;13.66;100.00;102610.31;5068504;28;20492;-63
2023/09/04 01:08:09;;;;;;;9.73;6.10;;;;;;;13.55;100.00;102609.13;5066348;28;20068;-63
2023/09/04 01:10:47;;;;;;;10.35;6.80;;;;;;;13.55;100.00;102609.13;5067288;28;20465;-63
2023/09/04 01:13:21;;;;;;;10.32;7.03;;;;;;;13.55;100.00;102609.97;5068322;28;20384;-63
2023/09/04 01:15:52;;;;;;;10.05;6.65;;;;;;;13.61;100.00;102614.97;5068491;28;20056;-63
2023/09/04 01:18:21;;;;;;;10.25;7.47;;;;;;;13.61;100.00;102608.84;5071135;28;20438;-63
2023/09/04 01:21:02;;;;;;;10.25;7.40;;;;;;;13.51;100.00;102606.66;5067957;28;20068;-63
2023/09/04 01:23:31;;;;;;;10.00;8.13;;;;;;;13.44;100.00;102614.94;5065867;28;20491;-62
2023/09/04 01:26:06;;;;;;;10.18;7.57;;;;;;;13.42;100.00;102607.09;5067523;28;20152;-63
2023/09/04 01:28:43;;;;;;;13.10;8.10;;;;;;;13.47;100.00;102609.50;5071245;28;20068;-63
2023/09/04 01:31:19;;;;;;;11.00;8.25;;;;;;;13.42;100.00;102606.25;5071369;28;20080;-63
2023/09/04 01:33:57;;;;;;;11.93;9.32;;;;;;;13.44;100.00;102605.25;5067500;28;20062;-63
2023/09/04 01:36:31;;;;;;;11.30;8.35;;;;;;;13.39;100.00;102603.75;5067423;28;20044;-62
2023/09/04 01:39:00;;;;;;;11.40;9.05;;;;;;;13.40;100.00;102608.94;5066341;28;20044;-62
2023/09/04 01:41:28;;;;;;;11.70;8.77;;;;;;;13.39;100.00;102611.66;5067531;28;20045;-64
2023/09/04 01:43:57;;;;;;;11.18;8.73;;;;;;;13.42;100.00;102614.19;5069837;28;20080;-64
2023/09/04 01:46:26;;;;;;;12.63;9.80;;;;;;;13.40;100.00;102619.53;5067508;28;20056;-64
2023/09/04 01:48:54;;;;;;;12.38;9.13;;;;;;;13.40;100.00;102616.03;5067600;28;20044;-64
2023/09/04 01:51:23;;;;;;;12.02;8.82;;;;;;;13.38;100.00;102609.97;5067542;28;20056;-64
2023/09/04 01:53:53;;;;;;;11.75;9.20;;;;;;;13.37;100.00;102611.75;5068652;28;20051;-64
2023/09/04 01:56:21;;;;;;;12.05;9.45;;;;;;;13.42;100.00;102615.03;5070540;28;20068;-64
2023/09/04 01:58:50;;;;;;;11.55;9.75;;;;;;;13.36;100.00;102612.66;5067357;28;20504;-62
2023/09/04 02:01:21;;;;;;;13.02;10.32;;;;;;;13.31;100.00;102606.75;5068369;28;20045;-64
2023/09/04 02:03:54;;;;;;;12.02;9.15;;;;;;;13.35;100.00;102613.59;5068256;28;20078;-64
2023/09/04 02:06:23;;;;;;;11.63;9.10;;;;;;;13.36;100.00;102615.31;5067139;28;20388;-63
2023/09/04 02:08:53;;;;;;;12.10;9.15;;;;;;;13.33;100.00;102610.16;5069025;28;20071;-63
2023/09/04 02:11:22;;;;;;;11.68;9.27;;;;;;;13.33;100.00;102604.88;5069453;28;20487;-63
2023/09/04 02:13:52;;;;;;;11.55;9.38;;;;;;;13.33;100.00;102608.38;5071154;28;20079;-63
2023/09/04 02:16:22;;;;;;;12.07;9.80;;;;;;;13.33;100.00;102610.16;5071145;28;20045;-63
2023/09/04 02:18:51;;;;;;;12.70;9.15;;;;;;;13.28;100.00;102602.47;5070644;28;20123;-64
2023/09/04 02:21:20;;;;;;;13.35;9.30;;;;;;;13.38;100.00;102607.34;5069951;28;20175;-64
2023/09/04 02:23:48;;;;;;;12.40;9.27;;;;;;;13.33;100.00;102597.81;5074659;28;20124;-63
2023/09/04 02:26:18;;;;;;;13.45;9.25;;;;;;;13.39;100.00;102609.03;5074548;28;20063;-63
2023/09/04 02:28:47;;;;;;;12.52;9.57;;;;;;;13.36;100.00;102602.09;5072071;28;20036;-63
2023/09/04 02:31:15;;;;;;;12.93;8.98;;;;;;;13.42;100.00;102603.63;5071134;28;20058;-63
2023/09/04 02:33:44;;;;;;;13.70;9.48;;;;;;;13.39;100.00;102607.25;5073180;28;20079;-63
2023/09/04 02:36:13;;;;;;;11.98;9.27;;;;;;;13.34;100.00;102596.88;5072412;28;20072;-63
2023/09/04 02:38:41;;;;;;;12.73;9.82;;;;;;;13.32;100.00;102603.16;5072417;28;20462;-63
2023/09/04 02:41:10;;;;;;;12.85;9.65;;;;;;;13.31;100.00;102596.19;5070281;28;20510;-63
2023/09/04 02:43:41;;;;;;;12.77;9.88;;;;;;;13.27;100.00;102595.47;5072778;28;20458;-63
2023/09/04 02:46:09;;;;;;;11.10;9.02;;;;;;;13.33;100.00;102604.88;5070901;28;20419;-63
2023/09/04 02:48:38;;;;;;;11.52;9.07;;;;;;;13.33;100.00;102589.88;5069700;28;20059;-63
2023/09/04 02:51:07;;;;;;;13.30;9.40;;;;;;;13.34;100.00;102596.03;5070374;28;20565;-63
2023/09/04 02:53:36;;;;;;;13.00;9.60;;;;;;;13.31;100.00;102586.44;5067629;28;20056;-63
2023/09/04 02:56:04;;;;;;;11.90;9.15;;;;;;;13.34;100.00;102591.56;5070339;28;20040;-64
2023/09/04 02:58:33;;;;;;;12.75;9.10;;;;;;;13.37;100.00;102589.75;5070585;28;20051;-63
2023/09/04 03:01:03;;;;;;;13.65;8.95;;;;;;;13.31;100.00;102580.31;5070731;28;20056;-63
2023/09/04 03:03:31;;;;;;;12.10;8.82;;;;;;;13.25;100.00;102576.19;5069668;28;20064;-63
2023/09/04 03:06:08;;;;;;;11.73;9.20;;;;;;;13.24;100.00;102585.06;5070241;28;20051;-63
2023/09/04 03:08:36;;;;;;;12.73;9.65;;;;;;;13.24;100.00;102574.47;5066408;28;20483;-63
2023/09/04 03:11:10;;;;;;;12.73;9.73;;;;;;;13.18;100.00;102558.91;5070133;28;20051;-63
2023/09/04 03:13:38;;;;;;;13.38;9.27;;;;;;;13.21;100.00;102565.84;5070131;28;20067;-63
2023/09/04 03:16:08;;;;;;;12.63;9.70;;;;;;;13.23;100.00;102567.47;5071271;28;20055;-63
2023/09/04 03:18:37;;;;;;;12.82;9.82;;;;;;;13.16;100.00;102571.38;5071890;28;20404;-63
2023/09/04 03:21:06;;;;;;;13.55;9.45;;;;;;;13.13;100.00;102567.09;5072965;28;20127;-63
2023/09/04 03:23:34;;;;;;;11.52;9.45;;;;;;;13.13;100.00;102568.84;5073316;28;20384;-63
2023/09/04 03:26:03;;;;;;;12.10;9.25;;;;;;;13.09;100.00;102565.53;5073202;28;20040;-63
2023/09/04 03:28:31;;;;;;;12.52;9.45;;;;;;;13.13;100.00;102556.50;5071772;28;20053;-63
2023/09/04 03:31:00;;;;;;;12.38;9.23;;;;;;;13.14;100.00;102560.88;5070248;28;20056;-62
2023/09/04 03:33:30;;;;;;;15.00;10.30;;;;;;;13.12;100.00;102568.00;5069479;28;20574;-63
2023/09/04 03:35:59;;;;;;;14.73;10.32;;;;;;;13.09;100.00;102562.00;5069408;28;20403;-63
2023/09/04 03:38:28;;;;;;;13.38;9.90;;;;;;;13.09;100.00;102569.94;5068510;28;20099;-63
2023/09/04 03:40:56;;;;;;;12.85;9.50;;;;;;;13.08;100.00;102562.97;5067239;28;20063;-63
2023/09/04 03:43:25;;;;;;;12.80;9.98;;;;;;;13.02;100.00;102562.31;5068724;28;20040;-63
2023/09/04 03:45:53;;;;;;;13.27;10.32;;;;;;;13.01;100.00;102563.25;5069081;28;20500;-63
2023/09/04 03:48:22;;;;;;;13.68;11.32;;;;;;;13.01;100.00;102562.41;5071366;28;20040;-63
2023/09/04 03:50:53;;;;;;;14.85;11.10;;;;;;;12.92;100.00;102563.69;5072210;28;20511;-63
2023/09/04 03:53:21;;;;;;;14.55;11.05;;;;;;;12.92;100.00;102561.03;5067661;28;20132;-63
2023/09/04 03:55:51;;;;;;;14.65;10.77;;;;;;;12.93;100.00;102570.66;5070096;28;20057;-63
2023/09/04 03:58:19;;;;;;;13.60;11.40;;;;;;;12.94;100.00;102559.19;5072562;28;20072;-63
2023/09/04 04:00:57;;;;;;;14.38;11.25;;;;;;;12.90;100.00;102555.00;5072812;28;20405;-63
2023/09/04 04:03:25;;;;;;;13.88;10.95;;;;;;;12.87;100.00;102548.97;5069151;28;20055;-62
2023/09/04 04:05:55;;;;;;;13.75;10.93;;;;;;;12.92;100.00;102550.47;5068223;28;20102;-63
2023/09/04 04:08:24;;;;;;;12.85;11.13;;;;;;;12.86;100.00;102550.78;5066990;28;20063;-62
2023/09/04 04:10:58;;;;;;;14.77;11.82;;;;;;;12.82;100.00;102547.41;5068786;28;20083;-62
2023/09/04 04:13:26;;;;;;;12.93;10.27;;;;;;;12.85;100.00;102551.69;5068900;28;20044;-62
2023/09/04 04:15:58;;;;;;;15.02;11.48;;;;;;;12.87;100.00;102544.56;5068659;28;20079;-62
2023/09/04 04:18:27;;;;;;;15.97;11.53;;;;;;;12.81;100.00;102536.94;5069228;28;20500;-62
2023/09/04 04:20:58;;;;;;;13.90;11.50;;;;;;;12.76;100.00;102538.94;5070610;28;20086;-62
2023/09/04 04:23:26;;;;;;;16.80;11.68;;;;;;;12.76;100.00;102537.16;5067051;28;20040;-62
2023/09/04 04:25:55;;;;;;;19.42;12.60;;;;;;;12.75;100.00;102539.84;5068218;28;20527;-62
2023/09/04 04:28:24;;;;;;;16.33;12.48;;;;;;;12.78;100.00;102540.56;5068685;28;20051;-62
2023/09/04 04:30:53;;;;;;;16.88;12.57;;;;;;;12.78;100.00;102527.38;5068574;28;20115;-62
2023/09/04 04:33:21;;;;;;;15.82;12.65;;;;;;;12.79;100.00;102534.38;5067695;28;20518;-63
2023/09/04 04:35:53;;;;;;;15.93;12.48;;;;;;;12.69;100.00;102533.09;5067304;28;20462;-62
2023/09/04 04:38:23;;;;;;;14.77;11.82;;;;;;;12.74;100.00;102543.44;5067119;28;20045;-62
2023/09/04 04:40:52;;;;;;;16.60;12.05;;;;;;;12.78;100.00;102543.22;5071196;28;20045;-62
2023/09/04 04:43:20;;;;;;;15.32;12.02;;;;;;;12.71;100.00;102549.72;5071822;28;20422;-62
2023/09/04 04:45:49;;;;;;;16.55;12.52;;;;;;;12.74;100.00;102543.44;5072306;28;20547;-62
2023/09/04 04:48:19;;;;;;;15.82;12.05;;;;;;;12.72;100.00;102545.28;5072039;28;20048;-62
2023/09/04 04:50:47;;;;;;;16.23;11.93;;;;;;;12.72;100.00;102542.66;5070319;28;20527;-62
2023/09/04 04:53:16;;;;;;;16.45;12.55;;;;;;;12.70;100.00;102545.38;5071300;28;20551;-62
2023/09/04 04:55:45;;;;;;;14.15;12.20;;;;;;;12.65;100.00;102540.31;5071432;28;20067;-62
2023/09/04 04:58:14;;;;;;;17.02;11.88;;;;;;;12.65;100.00;102542.06;5071773;28;20116;-62
2023/09/04 05:00:42;;;;;;;14.52;12.00;;;;;;;12.69;100.00;102543.66;5071391;28;20048;-62
2023/09/04 05:03:11;;;;;;;14.73;12.05;;;;;;;12.68;100.00;102540.16;5071470;28;20137;-62
2023/09/04 05:05:44;;;;;;;16.73;12.80;;;;;;;12.61;100.00;102538.75;5069898;28;20058;-62
2023/09/04 05:08:13;;;;;;;14.05;11.30;;;;;;;12.64;100.00;102543.03;5071366;28;20057;-62
2023/09/04 05:10:42;;;;;;;17.80;12.10;;;;;;;12.65;100.00;102542.06;5070340;28;20048;-62
2023/09/04 05:13:11;;;;;;;16.38;12.63;;;;;;;12.72;100.00;102530.31;5071380;28;20601;-61
2023/09/04 05:15:40;;;;;;;13.77;11.38;;;;;;;12.68;100.00;102529.59;5071265;28;20056;-62
2023/09/04 05:18:08;;;;;;;14.85;11.40;;;;;;;12.70;100.00;102529.53;5071086;28;20072;-62
2023/09/04 05:20:38;;;;;;;15.52;11.75;;;;;;;12.74;100.00;102528.44;5065769;28;20052;-62
2023/09/04 05:23:06;;;;;;;15.18;12.13;;;;;;;12.79;100.00;102531.72;5066388;28;20049;-62
2023/09/04 05:25:35;;;;;;;16.15;11.90;;;;;;;12.78;100.00;102534.44;5071125;28;20063;-62
2023/09/04 05:28:04;;;;;;;14.25;10.95;;;;;;;12.72;100.00;102522.41;5071257;28;20036;-62
2023/09/04 05:30:34;;;;;;;13.98;11.90;;;;;;;12.72;100.00;102530.31;5071111;28;20091;-62
2023/09/04 05:33:03;;;;;;;14.68;11.70;;;;;;;12.75;100.00;102531.94;5071290;28;20044;-62
2023/09/04 05:35:32;;;;;;;13.75;10.65;;;;;;;12.82;100.00;102528.94;5066035;28;20813;-62
2023/09/04 05:38:00;;;;;;;15.13;10.70;;;;;;;12.83;100.00;102525.38;5066151;28;20709;-61
2023/09/04 05:40:29;;;;;;;14.52;11.73;;;;;;;12.80;100.00;102532.56;5067074;28;20045;-62
2023/09/04 05:42:58;;;;;;;13.65;10.65;;;;;;;12.85;100.00;102535.84;5066099;28;20079;-62
2023/09/04 05:45:27;;;;;;;14.68;11.48;;;;;;;12.83;100.00;102538.56;5074137;28;20518;-61
2023/09/04 05:47:57;;;;;;;13.35;11.38;;;;;;;12.84;100.00;102534.13;5071285;28;20052;-61
2023/09/04 05:50:25;;;;;;;14.25;12.20;;;;;;;12.91;100.00;102538.22;5072306;28;20048;-61
2023/09/04 05:52:54;;;;;;;17.08;11.75;;;;;;;12.91;100.00;102532.06;5074715;28;20057;-61
2023/09/04 05:55:23;;;;;;;15.48;11.73;;;;;;;12.88;100.00;102538.34;5074686;28;20044;-61
2023/09/04 05:57:51;;;;;;;15.90;11.40;;;;;;;12.89;100.00;102532.16;5074797;28;20051;-62
2023/09/04 06:00:21;;;;;;;16.10;12.27;;;;;;;12.95;100.00;102533.63;5075084;28;20044;-61
2023/09/04 06:02:49;;;;;;;14.02;11.90;;;;;;;12.96;100.00;102527.41;5074904;28;20055;-62
2023/09/04 06:05:21;;;;;;;14.43;11.35;;;;;;;12.98;100.00;102526.41;5072760;28;20115;-62
2023/09/04 06:07:49;;;;;;;16.27;11.60;;;;;;;13.06;100.00;102526.06;5067728;28;20154;-62
2023/09/04 06:10:18;;;;;;;14.70;12.05;;;;;;;13.05;100.00;102528.75;5071278;28;20048;-61
2023/09/04 06:12:46;;;;;;;15.45;11.60;;;;;;;13.08;100.00;102532.09;5071578;28;20151;-61
2023/09/04 06:15:15;;;;;;;15.10;11.43;;;;;;;13.18;100.00;102528.09;5072717;28;20209;-62
2023/09/04 06:17:43;;;;;;;14.40;12.35;;;;;;;13.20;100.00;102530.66;5069744;28;20816;-61
2023/09/04 06:20:12;;;;;;;16.20;12.80;;;;;;;13.31;100.00;102527.47;5071043;28;20045;-62
2023/09/04 06:22:42;;;;;;;16.17;12.23;;;;;;;13.35;100.00;102532.56;5068940;28;20131;-62
2023/09/04 06:25:11;;;;;;;13.90;12.18;;;;;;;13.46;100.00;102534.66;5071292;28;20057;-61
2023/09/04 06:27:39;;;;;;;14.32;11.55;;;;;;;13.61;100.00;102540.94;5070264;28;20651;-61
2023/09/04 06:30:09;;;;;;;15.38;11.43;;;;;;;13.65;100.00;102542.50;5071404;28;20041;-62
2023/09/04 06:32:37;;;;;;;14.00;11.00;;;;;;;13.75;100.00;102542.03;5070049;28;20050;-62
2023/09/04 06:35:06;;;;;;;17.67;12.57;;;;;;;13.91;100.00;102544.75;5071123;28;20097;-61
2023/09/04 06:37:35;;;;;;;14.20;11.18;;;;;;;13.91;100.00;102542.09;5068601;28;20048;-62
2023/09/04 06:40:06;;;;;;;15.35;11.30;;;;;;;13.99;100.00;102537.25;5073098;28;20395;-62
2023/09/04 06:42:34;;;;;;;14.07;11.88;;;;;;;14.12;100.00;102540.09;5070405;28;20098;-62
2023/09/04 06:45:03;;;;;;;16.20;12.05;;;;;;;14.17;100.00;102530.13;5070844;28;20047;-62
2023/09/04 06:47:32;;;;;;;14.32;11.25;;;;;;;14.28;100.00;102538.34;5072532;28;20053;-62
2023/09/04 06:50:01;;;;;;;15.27;12.40;;;;;;;14.37;100.00;102551.06;5070401;28;20076;-62
2023/09/04 06:52:29;;;;;;;13.75;11.55;;;;;;;14.48;100.00;102546.97;5066889;28;20114;-62
2023/09/04 06:54:58;;;;;;;16.33;10.95;;;;;;;14.55;100.00;102548.38;5069364;28;20037;-62
2023/09/04 06:57:28;;;;;;;14.18;11.60;;;;;;;14.66;100.00;102553.94;5071983;28;20051;-62
2023/09/04 06:59:59;;;;;;;14.30;11.60;;;;;;;14.81;100.00;102548.75;5073542;28;20507;-62
2023/09/04 07:02:28;;;;;;;14.80;11.73;;;;;;;14.95;100.00;102540.84;5072433;28;20749;-62
2023/09/04 07:04:56;;;;;;;13.93;10.63;;;;;;;15.07;100.00;102543.78;5073751;28;20523;-63
2023/09/04 07:07:24;;;;;;;14.68;11.88;;;;;;;15.19;100.00;102540.41;5071325;28;20052;-62
2023/09/04 07:09:57;;;;;;;13.55;11.23;;;;;;;15.29;100.00;102544.22;5069840;28;20054;-63
2023/09/04 07:12:25;;;;;;;14.88;11.88;;;;;;;15.45;100.00;102543.34;5069721;28;20036;-62
2023/09/04 07:14:55;;;;;;;14.00;12.25;;;;;;;15.57;100.00;102550.56;5068583;28;20052;-63
2023/09/04 07:17:24;;;;;;;13.60;11.02;;;;;;;15.67;100.00;102546.41;5069682;28;20048;-63
2023/09/04 07:19:52;;;;;;;15.25;11.02;;;;;;;15.82;100.00;102554.44;5070003;28;20128;-63
2023/09/04 07:22:21;;;;;;;12.80;11.45;;;;;;;15.96;100.00;102557.06;5071092;28;20044;-63
2023/09/04 07:24:49;;;;;;;15.38;11.95;;;;;;;16.11;100.00;102546.47;5073619;28;20505;-63
2023/09/04 07:27:18;;;;;;;14.48;11.63;;;;;;;16.19;100.00;102545.03;5073041;28;20545;-63
2023/09/04 07:29:46;;;;;;;13.48;10.82;;;;;;;16.34;100.00;102537.09;5073298;28;20037;-63
2023/09/04 07:32:16;;;;;;;14.00;10.80;;;;;;;16.46;100.00;102548.75;5071896;28;20095;-63
2023/09/04 07:34:47;;;;;;;12.25;10.52;;;;;;;16.61;100.00;102550.41;5069103;28;20114;-64
2023/09/04 07:37:16;;;;;;;13.68;10.93;;;;;;;16.76;100.00;102553.88;5071212;28;20079;-64
2023/09/04 07:39:44;;;;;;;14.23;11.93;;;;;;;16.95;100.00;102553.56;5070063;28;20110;-64
2023/09/04 07:42:13;;;;;;;12.85;10.68;;;;;;;17.13;100.00;102558.66;5069245;28;20961;-64
2023/09/04 07:44:41;;;;;;;13.68;10.68;;;;;;;17.27;100.00;102558.56;5068854;28;20045;-64
2023/09/04 07:47:10;;;;;;;14.18;11.40;;;;;;;17.46;100.00;102555.53;5068863;28;20459;-64
2023/09/04 07:49:40;;;;;;;13.23;11.15;;;;;;;17.62;100.00;102560.66;5068482;28;20046;-64
2023/09/04 07:52:08;;;;;;;13.88;10.45;;;;;;;17.79;100.00;102556.00;5067514;28;20085;-64
2023/09/04 07:54:36;;;;;;;12.30;10.52;;;;;;;17.92;100.00;102556.88;5070929;28;20503;-64
2023/09/04 07:57:07;;;;;;;13.38;10.85;;;;;;;18.08;100.00;102564.66;5071281;28;20048;-65
2023/09/04 07:59:35;;;;;;;14.20;11.48;;;;;;;18.29;100.00;102556.09;5071202;28;20055;-64
2023/09/04 08:02:04;;;;;;;12.77;10.18;;;;;;;18.46;100.00;102550.44;5072392;28;20063;-65
2023/09/04 08:04:33;;;;;;;13.55;10.45;;;;;;;18.73;100.00;102550.25;5072744;28;20044;-64
2023/09/04 08:07:03;;;;;;;12.45;10.23;;;;;;;18.93;100.00;102545.28;5067000;28;20261;-65
2023/09/04 08:09:31;;;;;;;10.68;9.52;;;;;;;19.19;100.00;102550.47;5068361;28;20102;-65
2023/09/04 08:12:00;;;;;;;13.95;10.52;;;;;;;19.40;100.00;102540.88;5071133;28;20079;-65
2023/09/04 08:14:33;;;;;;;13.02;10.45;;;;;;;19.64;100.00;102547.09;5068313;28;20044;-65
2023/09/04 08:17:02;;;;;;;13.63;10.15;;;;;;;19.91;100.00;102549.47;5070641;28;20102;-65
2023/09/04 08:19:30;;;;;;;11.55;10.15;;;;;;;20.13;100.00;102545.13;5068960;28;20048;-64
2023/09/04 08:21:59;;;;;;;12.25;9.30;;;;;;;20.41;100.00;102544.59;5067618;28;20052;-65
2023/09/04 08:24:31;;;;;;;11.00;9.07;;;;;;;20.65;100.00;102543.56;5071962;28;20110;-65
2023/09/04 08:27:00;;;;;;;11.57;9.75;;;;;;;20.77;100.00;102539.09;5070644;28;20052;-65
2023/09/04 08:29:28;;;;;;;10.43;8.50;;;;;;;20.98;100.00;102544.47;5069014;28;20580;-64
2023/09/04 08:31:57;;;;;;;11.57;8.63;;;;;;;21.24;100.00;102538.78;5067569;28;20049;-65
2023/09/04 08:34:25;;;;;;;12.35;8.20;;;;;;;21.48;100.00;102543.03;5071556;28;20044;-65
2023/09/04 08:36:53;;;;;;;11.88;9.00;;;;;;;21.65;100.00;102534.44;5071815;28;20066;-64
2023/09/04 08:39:22;;;;;;;12.40;9.32;;;;;;;21.69;100.00;102532.34;5071921;28;20055;-65
2023/09/04 08:41:53;;;;;;;9.35;7.80;;;;;;;22.01;100.00;102537.56;5071991;28;20040;-65
2023/09/04 08:44:21;;;;;;;10.52;7.75;;;;;;;22.18;100.00;102530.72;5068849;28;20048;-65
2023/09/04 08:46:52;;;;;;;10.25;7.30;;;;;;;22.42;100.00;102533.06;5067721;28;20048;-66
2023/09/04 08:49:21;;;;;;;11.55;6.90;;;;;;;22.68;100.00;102531.72;5068498;28;20044;-65
2023/09/04 08:51:50;;;;;;;8.68;6.18;;;;;;;22.90;100.00;102533.28;5066698;28;20477;-66
2023/09/04 08:54:19;;;;;;;10.80;6.70;;;;;;;23.10;100.00;102531.47;5067410;28;20131;-65
2023/09/04 08:56:48;;;;;;;9.55;6.57;;;;;;;23.30;100.00;102526.94;5067828;28;20063;-65
2023/09/04 08:59:18;;;;;;;9.02;6.97;;;;;;;23.63;100.00;102533.66;5068212;28;20178;-65
2023/09/04 09:01:47;;;;;;;9.35;6.78;;;;;;;23.67;100.00;102519.94;5071559;28;20555;-65
2023/09/04 09:04:19;;;;;;;10.35;7.28;;;;;;;23.91;100.00;102516.78;5071698;28;20044;-65
2023/09/04 09:06:49;;;;;;;10.65;6.85;;;;;;;24.05;100.00;102510.94;5071226;28;20043;-66
2023/09/04 09:09:21;;;;;;;11.25;6.18;;;;;;;24.02;100.00;102511.19;5068261;28;20041;-65
2023/09/04 09:11:53;;;;;;;9.27;6.80;;;;;;;24.02;100.00;102505.81;5067763;28;20055;-65
2023/09/04 09:14:28;;;;;;;9.60;6.20;;;;;;;24.36;100.00;102507.06;5068127;28;20063;-65
2023/09/04 09:17:04;;;;;;;10.98;7.00;;;;;;;24.33;100.00;102505.53;5067236;28;20059;-65
2023/09/04 09:19:33;;;;;;;8.35;5.38;;;;;;;24.75;100.00;102507.66;5067475;28;20692;-65
2023/09/04 09:22:13;;;;;;;7.95;3.75;;;;;;;24.80;100.00;102505.38;5066656;28;20843;-65
2023/09/04 09:24:52;;;;;;;7.28;3.58;;;;;;;24.90;100.00;102505.28;5067297;28;20072;-65
2023/09/04 09:27:22;;;;;;;6.55;2.85;;;;;;;25.20;100.00;102496.94;5068725;28;20060;-65
2023/09/04 09:29:57;;;;;;;8.25;4.00;;;;;;;25.09;100.00;102498.88;5071131;28;20114;-65
2023/09/04 09:32:29;;;;;;;7.28;3.75;;;;;;;25.35;100.00;102506.16;5066712;28;20044;-65
2023/09/04 09:35:00;;;;;;;6.32;3.00;;;;;;;25.09;93.18;102506.13;5067541;28;20051;-64
2023/09/04 09:37:31;;;;;;;6.13;3.30;;;;;;;25.41;93.99;102502.81;5064434;28;20052;-64
2023/09/04 09:40:00;;;;;;;6.70;3.35;;;;;;;25.62;93.84;102494.38;5067580;28;20060;-64
2023/09/04 09:42:29;;;;;;;5.97;2.72;;;;;;;26.01;91.25;102498.41;5069937;28;20040;-64
2023/09/04 09:44:59;;;;;;;4.45;2.50;;;;;;;25.98;89.50;102493.34;5067815;28;20045;-64
2023/09/04 09:47:28;;;;;;;5.70;2.72;;;;;;;25.87;90.77;102502.56;5065843;28;20400;-63
2023/09/04 09:49:59;;;;;;;5.30;2.80;;;;;;;25.99;89.13;102501.28;5071012;28;20530;-63
2023/09/04 09:52:27;;;;;;;6.35;2.67;;;;;;;26.30;89.61;102498.03;5066964;28;20052;-63
2023/09/04 09:54:56;;;;;;;5.30;2.60;;;;;;;26.75;87.12;102493.25;5066257;28;20534;-55
2023/09/04 09:57:27;;;;;;;5.45;2.78;;;;;;;26.91;85.15;102489.69;5067991;28;20056;-55
2023/09/04 09:59:57;;;;;;;5.00;3.00;;;;;;;27.14;80.76;102486.31;5069023;28;20056;-63
2023/09/04 10:02:27;;;;;;;6.00;3.10;;;;;;;27.20;83.15;102492.88;5065110;28;20051;-64
2023/09/04 10:04:56;;;;;;;6.00;2.80;;;;;;;27.45;81.98;102481.06;5068734;28;20044;-64
2023/09/04 10:07:28;;;;;;;9.10;2.65;;;;;;;27.69;80.50;102484.69;5070804;28;20131;-64
2023/09/04 10:10:03;;;;;;;5.32;2.78;;;;;;;27.87;78.30;102480.91;5070463;28;20502;-64
2023/09/04 10:12:36;;;;;;;5.63;2.97;;;;;;;28.02;77.70;102473.78;5067760;28;20076;-64
2023/09/04 10:15:07;;;;;;;7.43;3.25;;;;;;;28.04;75.51;102476.31;5067722;28;20098;-64
2023/09/04 10:17:41;;;;;;;6.07;3.33;;;;;;;27.73;78.27;102471.69;5066320;28;20123;-64
2023/09/04 10:20:13;;;;;;;5.47;3.10;;;;;;;28.27;78.51;102474.47;5067563;28;20501;-64
2023/09/04 10:22:46;;;;;;;5.90;3.33;;;;;;;28.09;75.20;102469.34;5064849;28;20499;-64
2023/09/04 10:25:26;;;;;;;5.70;3.08;;;;;;;28.20;77.15;102467.28;5065960;28;20053;-64
2023/09/04 10:28:03;;;;;;;6.05;2.95;;;;;;;28.43;75.16;102461.88;5067144;28;20551;-64
2023/09/04 10:30:37;;;;;;;4.65;2.33;;;;;;;28.23;74.31;102459.63;5066202;28;20143;-64
2023/09/04 10:33:08;;;;;;;5.50;2.70;;;;;;;27.70;70.07;102467.47;5072686;28;20052;-63
2023/09/04 10:35:37;;;;;;;6.28;2.67;;;;;;;28.10;70.14;102462.94;5070659;28;20118;-64
2023/09/04 10:38:08;;;;;;;5.57;3.00;;;;;;;27.97;70.19;102465.31;5067940;28;20534;-63
2023/09/04 10:40:36;;;;;;;5.38;2.67;;;;;;;27.97;72.43;102466.16;5070004;28;20083;-63
2023/09/04 10:43:05;;;;;;;7.60;2.90;;;;;;;28.34;72.62;102463.78;5070942;28;20533;-63
2023/09/04 10:45:34;;;;;;;5.25;2.70;;;;;;;28.53;71.78;102465.16;5069995;28;20052;-63
2023/09/04 10:48:07;;;;;;;6.50;3.05;;;;;;;28.41;71.78;102458.50;5070417;28;20052;-63
2023/09/04 10:50:37;;;;;;;5.55;2.83;;;;;;;28.26;69.51;102453.84;5069960;28;20116;-64
2023/09/04 10:53:07;;;;;;;6.68;3.25;;;;;;;27.89;71.84;102451.84;5067416;28;20044;-63
2023/09/04 10:55:37;;;;;;;7.38;3.47;;;;;;;27.59;74.13;102447.06;5069610;28;20139;-63
2023/09/04 10:58:07;;;;;;;7.30;3.13;;;;;;;27.76;75.71;102439.75;5072310;28;20044;-63
2023/09/04 11:00:37;;;;;;;6.43;3.47;;;;;;;28.15;77.19;102440.75;5072617;28;20110;-63
2023/09/04 11:03:15;;;;;;;6.40;3.42;;;;;;;28.04;73.43;102442.00;5073601;28;20047;-63
2023/09/04 11:06:09;;;;;;;6.88;3.22;;;;;;;27.90;74.45;102440.03;5073761;28;20059;-63
2023/09/04 11:08:40;;;;;;;5.40;3.05;;;;;;;28.13;74.72;102424.72;5068056;28;20086;-63
2023/09/04 11:11:09;;;;;;;8.45;3.42;;;;;;;28.50;74.60;102425.78;5071154;28;20545;-63
2023/09/04 11:13:39;;;;;;;7.07;3.35;;;;;;;28.12;75.70;102414.91;5071762;28;20082;-63
2023/09/04 11:16:09;;;;;;;7.28;3.33;;;;;;;28.55;75.68;102410.88;5070093;28;20076;-63
2023/09/04 11:18:39;;;;;;;5.90;2.90;;;;;;;28.95;76.75;102411.56;5069795;28;20084;-63
2023/09/04 11:21:11;;;;;;;5.32;2.92;;;;;;;28.63;75.28;102410.78;5070556;28;20111;-64